• Join FlightAware (Why Join?)
  • Login
  • US Flag 
04:22AM EDT


 

Airport Tracker/Info


-or-


 

Live Flight TrackerFlight Track Log ✈ N934DL ✈ 20-Apr-2013 ✈ KSRQ - KLGA

Flight Track Log - Related Links

Times and Time Zones

All times are in EDT time to prevent confusion due to time zone crossing. See the N934DL flight status page for this flight to view local times or setup timezone preferences in your user account.

Time Position Orientation Groundspeed Altitude Reporting Facility
EDT Latitude Longitude Course Direction KTS MPH feet Rate Location/Type
02:00PM 27.4167 -82.5667 North 181 208 1,300  Level Tampa TRACON
02:01PM 27.4167 -82.6167 270° West 206 237 1,900 2,100 Climbing Tampa TRACON
02:02PM 27.4000 -82.7000 257° West 260 299 4,900 2,820 Climbing Tampa TRACON
02:03PM 27.5968 -82.7833 North  Level FlightAware Approximate
02:04PM 27.7204 -82.7833 North  Level FlightAware Approximate
02:04PM 27.5000 -82.7956 320° Northwest 240 276 10,200  Level Miami Center
02:05PM 27.8440 -82.7833 North  Level FlightAware Approximate
02:05PM 27.5961 -82.7914 North 280 322 11,100  Level Miami Center
02:06PM 27.7067 -82.7875 North 341 392 13,200 2,160 Climbing Miami Center
02:08PM 27.9433 -82.7869 360° North 464 534 17,900 2,100 Climbing Jacksonville Center
02:09PM 28.0644 -82.7867 360° North 440 506 19,700 1,020 Climbing Jacksonville Center
02:10PM 28.1917 -82.7867 360° North 440 506 20,000 240 Climbing Jacksonville Center
02:11PM 28.3189 -82.7842 North 445 512 20,200 900 Climbing Jacksonville Center
02:12PM 28.4461 -82.7817 North 445 512 21,900 1,620 Climbing Jacksonville Center
02:13PM 28.5881 -82.7697 North 453 521 23,500 1,500 Climbing Jacksonville Center
02:14PM 28.7069 -82.7575 North 468 539 25,000 720 Climbing Jacksonville Center
02:15PM 28.8386 -82.7433 North 474 545 25,000  Level Jacksonville Center
02:16PM 28.9700 -82.7311 North 474 545 25,000  Level Jacksonville Center
02:17PM 29.1036 -82.7214 North 474 545 25,000  Level Jacksonville Center
02:18PM 29.2350 -82.7331 356° North 474 545 25,000  Level Jacksonville Center
02:19PM 29.3644 -82.7447 356° North 474 545 25,000  Level Jacksonville Center
02:20PM 29.4981 -82.7614 354° North 474 545 25,000  Level Jacksonville Center
02:21PM 29.6275 -82.7708 356° North 474 545 25,000  Level Jacksonville Center
02:22PM 29.7611 -82.7778 357° North 474 545 25,000  Level Jacksonville Center
02:23PM 29.8947 -82.7825 358° North 474 545 25,000  Level Jacksonville Center
02:24PM 30.0283 -82.7703 North 479 551 25,000  Level Jacksonville Center
02:25PM 30.1642 -82.7411 11° North 479 551 25,000  Level Jacksonville Center
02:26PM 30.2997 -82.7194 North 485 558 25,000  Level Jacksonville Center
02:27PM 30.4375 -82.6950 North 485 558 25,000 60 Level Jacksonville Center
02:28PM 30.5711 -82.6561 14° North 485 558 25,200 1,020 Climbing Jacksonville Center
02:29PM 30.7006 -82.5953 22° Northeast 485 558 27,100 1,500 Climbing Jacksonville Center
02:30PM 30.8256 -82.5322 23° Northeast 490 564 28,300 1,140 Climbing Jacksonville Center
02:31PM 30.9569 -82.4661 23° Northeast 495 570 29,400 960 Climbing Jacksonville Center
02:32PM 31.0903 -82.4025 22° Northeast 506 582 30,300 960 Climbing Jacksonville Center
02:33PM 31.2258 -82.3386 22° Northeast 513 590 31,400 1,080 Climbing Jacksonville Center
02:34PM 31.3736 -82.2672 22° Northeast 513 590 32,500 960 Climbing Jacksonville Center
02:35PM 31.5111 -82.2006 22° Northeast 524 603 33,400 840 Climbing Jacksonville Center
02:36PM 31.6444 -82.1336 23° Northeast 519 597 34,200 660 Climbing Jacksonville Center
02:37PM 31.7650 -82.0717 24° Northeast 519 597 34,800 360 Climbing Jacksonville Center
02:38PM 31.9150 -81.9967 23° Northeast 519 597 35,000 60 Climbing Jacksonville Center
02:39PM 32.0417 -81.9072 31° Northeast 519 597 35,000  Level Jacksonville Center
02:40PM 32.1558 -81.8178 34° Northeast 537 618 35,000  Level Jacksonville Center
02:41PM 32.2947 -81.7106 33° Northeast 543 625 35,000  Level Jacksonville Center
02:42PM 32.4086 -81.6228 33° Northeast 543 625 35,000  Level Jacksonville Center
02:43PM 32.5494 -81.5150 33° Northeast 543 625 35,000  Level Jacksonville Center
02:44PM 32.6778 -81.4142 33° Northeast 543 625 35,000  Level Jacksonville Center
02:45PM 32.7914 -81.3233 34° Northeast 543 625 35,000  Level Jacksonville Center
02:46PM 32.9194 -81.2222 34° Northeast 543 625 35,000  Level Jacksonville Center
02:47PM 33.0436 -81.1258 33° Northeast 543 625 35,000  Level Jacksonville Center
02:48PM 33.1714 -81.0264 33° Northeast 543 625 35,000  Level Jacksonville Center
02:49PM 33.2992 -80.9219 34° Northeast 543 625 35,000  Level Jacksonville Center
02:50PM 33.4250 -80.8219 34° Northeast 543 625 35,000  Level Jacksonville Center
02:51PM 33.5547 -80.7167 34° Northeast 543 625 35,000  Level Jacksonville Center
02:52PM 33.6803 -80.6164 34° Northeast 543 625 35,000  Level Jacksonville Center
02:53PM 33.8078 -80.5131 34° Northeast 543 625 35,000  Level Jacksonville Center
02:54PM 33.9372 -80.4094 34° Northeast 543 625 35,000  Level Jacksonville Center
02:55PM 34.0725 -80.2978 34° Northeast 548 631 35,000  Level Jacksonville Center
02:56PM 34.2019 -80.1911 34° Northeast 543 625 35,000  Level Jacksonville Center
02:58PM 34.4714 -79.9675 34° Northeast 552 635 35,000  Level Washington Center
02:59PM 34.5983 -79.8608 35° Northeast 552 635 35,000  Level Washington Center
03:00PM 34.7253 -79.7539 35° Northeast 552 635 35,000  Level Washington Center
03:01PM 34.8542 -79.6492 34° Northeast 552 635 35,000  Level Washington Center
03:02PM 34.9828 -79.5414 34° Northeast 552 635 35,000  Level Washington Center
03:03PM 35.1094 -79.4361 34° Northeast 552 635 35,000  Level Washington Center
03:04PM 35.2403 -79.3278 34° Northeast 552 635 35,000  Level Washington Center
03:05PM 35.3675 -79.2572 24° Northeast 552 635 35,000  Level Washington Center
03:06PM 35.5147 -79.2233 11° North 541 623 35,000  Level Washington Center
03:07PM 35.6600 -79.1811 13° North 536 617 35,000  Level Washington Center
03:08PM 35.7922 -79.0772 33° Northeast 542 624 35,000  Level Washington Center
03:09PM 35.9108 -78.9489 41° Northeast 547 629 35,000  Level Washington Center
03:10PM 36.0269 -78.8203 42° Northeast 553 636 35,000  Level Washington Center
03:11PM 36.1472 -78.6889 41° Northeast 558 642 35,000  Level Washington Center
03:12PM 36.2694 -78.5625 40° Northeast 563 648 35,000  Level Washington Center
03:13PM 36.3872 -78.4353 41° Northeast 568 654 35,000  Level Washington Center
03:14PM 36.5050 -78.3053 42° Northeast 568 654 35,000  Level Washington Center
03:15PM 36.6247 -78.1747 41° Northeast 568 654 35,000  Level Washington Center
03:16PM 36.7508 -78.0314 42° Northeast 568 654 35,000  Level Washington Center
03:17PM 36.8706 -77.8947 42° Northeast 563 648 35,000  Level Washington Center
03:18PM 36.9650 -77.7417 52° Northeast 563 648 35,000  Level Washington Center
03:19PM 37.0553 -77.5853 54° Northeast 563 648 35,000  Level Washington Center
03:20PM 37.1392 -77.4417 54° Northeast 563 648 35,000  Level Washington Center
03:21PM 37.2311 -77.2847 54° Northeast 558 642 35,000  Level Washington Center
03:22PM 37.3269 -77.1303 52° Northeast 565 650 35,000  Level Washington Center
03:23PM 37.4744 -77.0050 34° Northeast 566 651 35,000  Level Washington Center
03:24PM 37.6156 -76.9053 29° Northeast 571 657 35,000  Level Washington Center
03:25PM 37.7522 -76.8025 31° Northeast 571 657 35,000  Level Washington Center
03:26PM 37.8867 -76.6994 31° Northeast 566 651 35,000  Level Washington Center
03:27PM 38.0272 -76.5961 30° Northeast 566 651 35,000  Level Washington Center
03:28PM 38.1656 -76.4922 31° Northeast 566 651 35,000  Level Washington Center
03:29PM 38.3042 -76.3828 32° Northeast 571 657 35,000  Level Washington Center
03:30PM 38.4319 -76.2703 35° Northeast 566 651 35,000  Level Washington Center
03:31PM 38.5639 -76.1414 37° Northeast 566 651 35,000 -1,080 Level Washington Center
03:32PM 38.6853 -76.0358 34° Northeast 588 677 32,900 -2,820 Descending Washington Center
03:33PM 38.8192 -75.9086 36° Northeast 593 682 29,400 -2,940 Descending Washington Center
03:34PM 38.9528 -75.7839 36° Northeast 593 682 27,100 -1,200 Descending Washington Center
03:35PM 39.0781 -75.6639 37° Northeast 582 670 27,000 -480 Descending Washington Center
03:36PM 39.2050 -75.5406 37° Northeast 577 664 26,200 -1,260 Descending Washington Center
03:37PM 39.3300 -75.4253 35° Northeast 572 658 24,500 -1,980 Descending Washington Center
03:38PM 39.4528 -75.3200 33° Northeast 548 631 22,300 -2,040 Descending Washington Center
03:39PM 39.5650 -75.2175 35° Northeast 519 597 20,500 -2,100 Descending Washington Center
03:40PM 39.6814 -75.1089 36° Northeast 480 552 18,100 -2,280 Descending Washington Center
03:41PM 39.7725 -75.0300 34° Northeast 446 513 16,000 -2,340 Descending Washington Center
03:42PM 39.8806 -74.9372 33° Northeast 428 493 13,500 -2,040 Descending Washington Center
03:43PM 39.9694 -74.8308 43° Northeast 423 487 12,000 -1,260 Descending Washington Center
03:44PM 40.0500 -74.7167 47° Northeast 404 465 11,000 -900 Descending New York TRACON
03:45PM 40.1333 -74.6000 47° Northeast 390 449 10,100 -480 Descending New York TRACON
03:46PM 40.2000 -74.5000 49° Northeast 383 441 10,100  Level New York TRACON
03:47PM 40.2667 -74.4167 44° Northeast 384 442 10,100 -240 Level New York TRACON
03:48PM 40.3500 -74.3333 37° Northeast 331 381 9,700 -900 Descending New York TRACON
03:49PM 40.4167 -74.2667 37° Northeast 307 353 8,400 -1,200 Descending New York TRACON
03:50PM 40.4833 -74.2000 37° Northeast 288 331 7,300 -1,320 Descending New York TRACON
03:51PM 40.5333 -74.1333 45° Northeast 279 321 5,800 -1,440 Descending New York TRACON
03:52PM 40.6000 -74.0667 37° Northeast 277 319 4,500 -900 Descending New York TRACON
03:53PM 40.6500 -74.0000 45° Northeast 275 316 4,100 -240 Descending New York TRACON
03:54PM 40.7000 -73.9167 52° Northeast 277 319 4,100  Level New York TRACON
03:55PM 40.7500 -73.8333 52° Northeast 275 316 4,100  Level New York TRACON
03:56PM 40.8000 -73.7667 45° Northeast 269 310 4,100  Level New York TRACON
03:57PM 40.8667 -73.7167 30° Northeast 266 306 4,100 -300 Level New York TRACON
03:58PM 40.9167 -73.7000 14° North 255 293 3,600 -840 Descending New York TRACON
03:59PM 40.9333 -73.7667 288° West 233 268 2,500 -1,140 Descending New York TRACON